createdAt,value
2022-08-27T00:00:45.654Z,5.40
2022-08-27T00:03:12.210Z,5.45
2022-08-27T00:05:39.469Z,6.60
2022-08-27T00:08:06.797Z,5.05
2022-08-27T00:10:33.985Z,5.40
2022-08-27T00:13:00.956Z,5.05
2022-08-27T00:15:28.031Z,6.13
2022-08-27T00:17:54.467Z,4.93
2022-08-27T00:20:22.898Z,5.40
2022-08-27T00:22:49.804Z,5.80
2022-08-27T00:25:16.322Z,5.82
2022-08-27T00:27:42.876Z,6.85
2022-08-27T00:30:12.895Z,6.30
2022-08-27T00:32:40.402Z,5.93
2022-08-27T00:35:07.719Z,5.63
2022-08-27T00:37:34.157Z,6.15
2022-08-27T00:40:00.861Z,6.45
2022-08-27T00:42:27.304Z,6.75
2022-08-27T00:44:57.482Z,6.60
2022-08-27T00:47:25.225Z,6.60
2022-08-27T00:49:58.909Z,6.05
2022-08-27T00:52:41.938Z,6.47
2022-08-27T00:55:12.529Z,6.05
2022-08-27T00:57:41.173Z,5.63
2022-08-27T01:00:11.633Z,6.47
2022-08-27T01:02:38.073Z,5.75
2022-08-27T01:05:09.204Z,5.80
2022-08-27T01:07:38.777Z,5.55
2022-08-27T01:10:09.124Z,4.90
2022-08-27T01:12:36.492Z,5.70
2022-08-27T01:15:07.751Z,5.35
2022-08-27T01:17:37.848Z,5.03
2022-08-27T01:20:09.417Z,4.82
2022-08-27T01:22:44.834Z,5.78
2022-08-27T01:25:13.779Z,5.63
2022-08-27T01:27:41.509Z,5.53
2022-08-27T01:30:10.830Z,5.65
2022-08-27T01:32:38.325Z,6.63
2022-08-27T01:35:07.520Z,6.65
2022-08-27T01:37:34.855Z,6.97
2022-08-27T01:40:02.056Z,6.50
2022-08-27T01:42:32.460Z,7.90
2022-08-27T01:45:05.642Z,6.63
2022-08-27T01:47:32.604Z,5.72
2022-08-27T01:49:59.292Z,5.97
2022-08-27T01:52:27.959Z,5.50
2022-08-27T01:54:54.404Z,5.93
2022-08-27T01:57:25.721Z,5.43
2022-08-27T01:59:52.559Z,6.40
2022-08-27T02:02:19.065Z,6.03
2022-08-27T02:04:45.512Z,7.57
2022-08-27T02:07:12.031Z,6.03
2022-08-27T02:09:38.464Z,6.10
2022-08-27T02:12:05.536Z,5.28
2022-08-27T02:14:31.948Z,6.30
2022-08-27T02:16:58.429Z,6.05
2022-08-27T02:19:24.883Z,6.20
2022-08-27T02:21:52.520Z,5.88
2022-08-27T02:24:19.109Z,7.15
2022-08-27T02:26:45.896Z,5.68
2022-08-27T02:29:12.420Z,5.03
2022-08-27T02:31:38.934Z,4.88
2022-08-27T02:34:05.473Z,5.38
2022-08-27T02:36:31.872Z,4.88
2022-08-27T02:38:58.241Z,6.13
2022-08-27T02:41:24.748Z,5.53
2022-08-27T02:43:51.141Z,5.05
2022-08-27T02:46:17.944Z,4.85
2022-08-27T02:48:44.781Z,4.57
2022-08-27T02:51:11.290Z,4.50
2022-08-27T02:53:37.967Z,5.93
2022-08-27T02:56:06.231Z,4.97
2022-08-27T02:58:33.599Z,4.57
2022-08-27T03:01:01.665Z,4.65
2022-08-27T03:03:29.477Z,5.40
2022-08-27T03:05:58.063Z,5.10
2022-08-27T03:08:26.484Z,4.65
2022-08-27T03:10:55.869Z,4.63
2022-08-27T03:13:23.291Z,5.05
2022-08-27T03:15:49.857Z,5.13
2022-08-27T03:18:18.353Z,5.10
2022-08-27T03:20:47.673Z,4.60
2022-08-27T03:23:14.680Z,4.30
2022-08-27T03:25:51.458Z,5.13
2022-08-27T03:28:23.881Z,5.20
2022-08-27T03:30:52.962Z,4.65
2022-08-27T03:33:20.853Z,5.00
2022-08-27T03:35:51.728Z,4.32
2022-08-27T03:38:18.830Z,4.83
2022-08-27T03:40:45.313Z,4.78
2022-08-27T03:43:13.413Z,4.65
2022-08-27T03:45:57.083Z,4.50
2022-08-27T03:48:29.208Z,4.57
2022-08-27T03:50:55.850Z,4.45
2022-08-27T03:53:22.305Z,4.60
2022-08-27T03:55:49.390Z,4.03
2022-08-27T03:58:16.781Z,4.25
2022-08-27T04:00:43.477Z,4.45
2022-08-27T04:03:13.432Z,3.80
2022-08-27T04:05:40.508Z,3.63
2022-08-27T04:08:09.649Z,4.05
2022-08-27T04:10:39.813Z,3.90
2022-08-27T04:13:06.217Z,4.03
2022-08-27T04:15:32.636Z,3.67
2022-08-27T04:17:59.058Z,5.07
2022-08-27T04:20:35.016Z,4.03
2022-08-27T04:23:02.428Z,3.95
2022-08-27T04:25:29.363Z,3.83
2022-08-27T04:27:55.923Z,3.95
2022-08-27T04:30:22.449Z,4.00
2022-08-27T04:32:49.029Z,3.42
2022-08-27T04:35:15.466Z,3.75
2022-08-27T04:37:42.183Z,3.63
2022-08-27T04:40:09.270Z,3.63
2022-08-27T04:42:35.719Z,3.60
2022-08-27T04:45:02.930Z,4.05
2022-08-27T04:47:30.959Z,3.13
2022-08-27T04:50:00.210Z,3.17
2022-08-27T04:52:28.261Z,3.88
2022-08-27T04:54:55.125Z,3.35
2022-08-27T04:57:21.705Z,3.67
2022-08-27T04:59:48.373Z,3.70
2022-08-27T05:02:14.826Z,4.05
2022-08-27T05:04:41.432Z,3.20
2022-08-27T05:07:09.625Z,3.30
2022-08-27T05:09:36.600Z,3.35
2022-08-27T05:12:03.602Z,3.28
2022-08-27T05:14:30.416Z,3.70
2022-08-27T05:16:58.383Z,3.70
2022-08-27T05:19:24.801Z,3.40
2022-08-27T05:21:53.013Z,3.63
2022-08-27T05:24:19.796Z,3.38
2022-08-27T05:26:46.331Z,3.60
2022-08-27T05:29:13.976Z,3.17
2022-08-27T05:31:41.513Z,3.05
2022-08-27T05:34:11.415Z,2.90
2022-08-27T05:36:47.708Z,3.08
2022-08-27T05:39:15.556Z,3.72
2022-08-27T05:41:42.095Z,3.20
2022-08-27T05:44:39.177Z,2.58
2022-08-27T05:46:56.286Z,2.53
2022-08-27T05:49:22.745Z,3.13
2022-08-27T05:51:49.178Z,4.10
2022-08-27T05:54:19.168Z,2.58
2022-08-27T05:56:46.561Z,3.78
2022-08-27T05:59:31.552Z,2.90
2022-08-27T06:02:02.050Z,3.00
2022-08-27T06:04:28.462Z,3.15
2022-08-27T06:06:54.893Z,2.70
2022-08-27T06:09:25.875Z,2.20
2022-08-27T06:11:57.280Z,2.38
2022-08-27T06:14:23.949Z,2.30
2022-08-27T06:16:50.351Z,2.33
2022-08-27T06:19:16.835Z,1.88
2022-08-27T06:21:43.393Z,2.10
2022-08-27T06:24:12.136Z,2.13
2022-08-27T06:26:39.325Z,1.77
2022-08-27T06:29:06.953Z,2.13
2022-08-27T06:31:35.056Z,1.85
2022-08-27T06:34:07.388Z,2.90
2022-08-27T06:36:36.717Z,1.98
2022-08-27T06:39:04.009Z,1.83
2022-08-27T06:41:30.487Z,2.78
2022-08-27T06:43:58.242Z,1.70
2022-08-27T06:46:26.789Z,1.70
2022-08-27T06:48:58.300Z,1.77
2022-08-27T06:51:28.278Z,2.20
2022-08-27T06:53:56.384Z,1.67
2022-08-27T06:56:23.309Z,1.55
2022-08-27T06:58:57.985Z,2.50
2022-08-27T07:01:30.576Z,1.95
2022-08-27T07:03:58.897Z,1.77
2022-08-27T07:06:26.624Z,1.85
2022-08-27T07:08:53.878Z,1.60
2022-08-27T07:11:21.426Z,1.92
2022-08-27T07:13:48.826Z,2.50
2022-08-27T07:16:19.040Z,1.73
2022-08-27T07:18:45.802Z,1.65
2022-08-27T07:21:12.418Z,1.48
2022-08-27T07:23:39.761Z,1.60
2022-08-27T07:26:10.719Z,1.92
2022-08-27T07:28:38.289Z,1.40
2022-08-27T07:31:09.855Z,2.38
2022-08-27T07:33:40.244Z,1.92
2022-08-27T07:36:12.712Z,2.05
2022-08-27T07:38:39.149Z,1.80
2022-08-27T07:41:10.567Z,2.20
2022-08-27T07:43:56.303Z,2.00
2022-08-27T07:46:23.606Z,1.88
2022-08-27T07:48:50.733Z,1.52
2022-08-27T07:51:19.519Z,4.07
2022-08-27T07:53:46.910Z,3.60
2022-08-27T07:56:13.837Z,2.60
2022-08-27T07:58:41.031Z,3.17
2022-08-27T08:01:07.896Z,2.50
2022-08-27T08:03:34.424Z,3.33
2022-08-27T08:06:09.291Z,2.55
2022-08-27T08:08:36.580Z,2.92
2022-08-27T08:11:06.068Z,1.85
2022-08-27T08:13:32.504Z,1.90
2022-08-27T08:15:59.285Z,1.95
2022-08-27T08:18:26.454Z,2.42
2022-08-27T08:20:58.592Z,2.08
2022-08-27T08:23:25.705Z,1.88
2022-08-27T08:25:52.139Z,2.15
2022-08-27T08:28:18.566Z,1.73
2022-08-27T08:30:46.232Z,2.03
2022-08-27T08:33:13.408Z,1.65
2022-08-27T08:35:41.334Z,3.33
2022-08-27T08:38:08.536Z,2.13
2022-08-27T08:40:39.369Z,2.10
2022-08-27T08:43:07.800Z,2.42
2022-08-27T08:45:36.271Z,2.00
2022-08-27T08:48:07.487Z,1.88
2022-08-27T08:50:39.458Z,1.92
2022-08-27T08:53:11.463Z,1.92
2022-08-27T08:55:42.872Z,1.70
2022-08-27T08:58:44.967Z,1.70
2022-08-27T09:01:14.881Z,2.38
2022-08-27T09:03:42.987Z,1.70
2022-08-27T09:06:24.087Z,1.80
2022-08-27T09:08:50.627Z,2.00
2022-08-27T09:11:23.376Z,2.10
2022-08-27T09:13:53.291Z,1.73
2022-08-27T09:16:19.928Z,1.35
2022-08-27T09:18:51.201Z,1.80
2022-08-27T09:21:36.332Z,2.08
2022-08-27T09:24:18.466Z,2.03
2022-08-27T09:26:45.041Z,1.85
2022-08-27T09:29:16.194Z,1.73
2022-08-27T09:31:57.221Z,1.80
2022-08-27T09:34:25.217Z,1.42
2022-08-27T09:37:20.489Z,1.33
2022-08-27T09:39:47.166Z,1.83
2022-08-27T09:42:27.938Z,2.00
2022-08-27T09:44:55.578Z,1.85
2022-08-27T09:47:22.974Z,1.80
2022-08-27T09:49:49.470Z,1.60
2022-08-27T09:52:37.736Z,1.60
2022-08-27T09:55:05.410Z,1.42
2022-08-27T09:57:38.807Z,1.45
2022-08-27T10:00:09.793Z,1.48
2022-08-27T10:02:36.296Z,1.70
2022-08-27T10:05:14.434Z,1.83
2022-08-27T10:07:52.356Z,1.50
2022-08-27T10:10:22.734Z,1.60
2022-08-27T10:12:59.645Z,1.50
2022-08-27T10:15:50.704Z,1.98
2022-08-27T10:18:37.493Z,1.30
2022-08-27T10:21:17.314Z,1.60
2022-08-27T10:24:07.038Z,1.90
2022-08-27T10:26:41.307Z,1.88
2022-08-27T10:29:26.614Z,1.80
2022-08-27T10:32:09.664Z,1.63
2022-08-27T10:34:46.113Z,1.50
2022-08-27T10:38:00.127Z,1.80
2022-08-27T10:40:28.223Z,1.08
2022-08-27T10:43:14.028Z,1.25
2022-08-27T10:45:50.135Z,1.38
2022-08-27T10:48:35.686Z,1.35
2022-08-27T10:51:16.372Z,1.63
2022-08-27T10:53:50.415Z,1.50
2022-08-27T10:56:31.407Z,1.20
2022-08-27T10:59:21.431Z,1.50
2022-08-27T11:02:06.867Z,1.60
2022-08-27T11:04:39.087Z,1.83
2022-08-27T11:07:15.064Z,1.73
2022-08-27T11:10:37.179Z,1.63
2022-08-27T11:13:07.430Z,1.75
2022-08-27T11:15:37.075Z,1.23
2022-08-27T11:18:25.871Z,1.55
2022-08-27T11:20:53.971Z,1.58
2022-08-27T11:23:28.408Z,1.88
2022-08-27T11:26:02.675Z,1.67
2022-08-27T11:28:44.727Z,2.15
2022-08-27T11:31:42.053Z,1.70
2022-08-27T11:34:20.289Z,1.15
2022-08-27T11:37:10.046Z,1.30
2022-08-27T11:39:56.690Z,1.42
2022-08-27T11:43:03.135Z,1.52
2022-08-27T11:45:38.200Z,1.65
2022-08-27T11:48:22.077Z,1.75
2022-08-27T11:50:58.800Z,1.23
2022-08-27T11:53:59.131Z,1.33
2022-08-27T11:56:25.445Z,1.60
2022-08-27T11:58:52.635Z,1.25
2022-08-27T12:01:31.597Z,1.40
2022-08-27T12:04:08.022Z,1.55
2022-08-27T12:06:45.846Z,1.65
2022-08-27T12:09:19.315Z,2.10
2022-08-27T12:12:01.368Z,1.58
2022-08-27T12:14:57.976Z,1.73
2022-08-27T12:17:38.372Z,1.50
2022-08-27T12:20:29.686Z,2.30
2022-08-27T12:23:33.057Z,1.60
2022-08-27T12:26:02.996Z,1.58
2022-08-27T12:28:30.475Z,1.95
2022-08-27T12:30:58.496Z,1.85
2022-08-27T12:33:34.349Z,1.45
2022-08-27T12:36:27.511Z,1.58
2022-08-27T12:38:57.968Z,1.65
2022-08-27T12:41:44.571Z,1.33
2022-08-27T12:44:23.130Z,1.40
2022-08-27T12:46:53.502Z,1.48
2022-08-27T12:49:36.926Z,1.40
2022-08-27T12:52:17.573Z,1.73
2022-08-27T12:55:10.920Z,1.13
2022-08-27T12:57:46.710Z,1.00
2022-08-27T13:00:26.328Z,1.42
2022-08-27T13:03:23.981Z,1.52
2022-08-27T13:05:51.031Z,2.20
2022-08-27T13:08:22.557Z,1.33
2022-08-27T13:10:50.176Z,1.48
2022-08-27T13:13:19.689Z,1.60
2022-08-27T13:15:58.520Z,1.27
2022-08-27T13:18:29.567Z,1.00
2022-08-27T13:21:16.978Z,1.80
2022-08-27T13:23:45.350Z,1.50
2022-08-27T13:26:12.411Z,1.70
2022-08-27T13:28:41.661Z,1.23
2022-08-27T13:31:10.123Z,1.83
2022-08-27T13:33:37.511Z,1.60
2022-08-27T13:36:06.561Z,1.30
2022-08-27T13:38:35.976Z,1.67
2022-08-27T13:41:11.972Z,1.73
2022-08-27T13:43:42.276Z,1.80
2022-08-27T13:46:20.557Z,1.50
2022-08-27T13:48:49.900Z,1.60
2022-08-27T13:51:33.437Z,1.20
2022-08-27T13:54:14.336Z,1.60
2022-08-27T13:56:57.367Z,1.38
2022-08-27T13:59:27.006Z,1.42
2022-08-27T14:02:10.903Z,1.58
2022-08-27T14:04:39.351Z,1.38
2022-08-27T14:07:31.552Z,2.35
2022-08-27T14:10:03.683Z,1.88
2022-08-27T14:12:39.109Z,1.77
2022-08-27T14:15:40.989Z,1.83
2022-08-27T14:18:55.476Z,1.50
2022-08-27T14:21:19.204Z,1.30
2022-08-27T14:23:45.708Z,1.38
2022-08-27T14:26:13.365Z,1.20
2022-08-27T14:28:39.787Z,1.42
2022-08-27T14:31:06.318Z,1.33
2022-08-27T14:33:32.758Z,1.92
2022-08-27T14:35:59.678Z,1.23
2022-08-27T14:38:33.502Z,1.38
2022-08-27T14:40:59.962Z,1.83
2022-08-27T14:43:26.771Z,1.67
2022-08-27T14:45:53.404Z,1.20
2022-08-27T14:48:28.709Z,1.20
2022-08-27T14:50:56.614Z,1.27
2022-08-27T14:53:23.069Z,1.75
2022-08-27T14:55:51.356Z,1.73
2022-08-27T14:58:18.453Z,1.52
2022-08-27T15:00:44.859Z,1.60
2022-08-27T15:03:11.582Z,1.95
2022-08-27T15:05:38.073Z,1.40
2022-08-27T15:08:04.918Z,1.45
2022-08-27T15:10:32.140Z,1.55
2022-08-27T15:12:58.919Z,1.20
2022-08-27T15:15:25.423Z,1.50
2022-08-27T15:17:51.853Z,1.50
2022-08-27T15:20:19.798Z,1.55
2022-08-27T15:22:48.199Z,2.20
2022-08-27T15:25:15.562Z,1.25
2022-08-27T15:27:42.013Z,1.50
2022-08-27T15:30:12.043Z,1.40
2022-08-27T15:32:44.107Z,1.38
2022-08-27T15:37:41.761Z,1.63
2022-08-27T15:40:09.238Z,1.50
2022-08-27T15:42:35.687Z,1.38
2022-08-27T15:45:02.436Z,1.73
2022-08-27T15:47:28.846Z,1.38
2022-08-27T15:49:55.273Z,1.50
2022-08-27T15:52:22.234Z,1.30
2022-08-27T15:54:49.979Z,1.30
2022-08-27T15:57:17.696Z,1.80
2022-08-27T15:59:44.721Z,1.80
2022-08-27T16:02:16.647Z,1.70
2022-08-27T16:04:43.477Z,1.65
2022-08-27T16:07:16.283Z,1.70
2022-08-27T16:09:46.676Z,1.67
2022-08-27T16:12:26.818Z,1.60
2022-08-27T16:14:54.168Z,1.77
2022-08-27T16:17:21.115Z,2.20
2022-08-27T16:19:47.544Z,2.53
2022-08-27T16:22:14.628Z,2.30
2022-08-27T16:24:41.044Z,1.85
2022-08-27T16:27:07.604Z,2.50
2022-08-27T16:29:34.312Z,1.83
2022-08-27T16:32:01.545Z,2.15
2022-08-27T16:34:29.791Z,1.83
2022-08-27T16:36:56.586Z,2.30
2022-08-27T16:39:23.261Z,1.73
2022-08-27T16:41:50.252Z,1.88
2022-08-27T16:44:17.575Z,1.75
2022-08-27T16:46:44.123Z,1.98
2022-08-27T16:49:29.190Z,1.88
2022-08-27T16:51:55.601Z,1.60
2022-08-27T16:54:22.252Z,2.05
2022-08-27T16:56:48.672Z,2.10
2022-08-27T16:59:15.773Z,1.85
2022-08-27T17:01:42.566Z,2.05
2022-08-27T17:04:17.291Z,2.38
2022-08-27T17:06:51.497Z,3.25
2022-08-27T17:09:18.625Z,2.03
2022-08-27T17:11:47.809Z,1.75
2022-08-27T17:14:14.237Z,1.98
2022-08-27T17:16:43.860Z,2.17
2022-08-27T17:19:11.007Z,2.58
2022-08-27T17:21:44.356Z,1.85
2022-08-27T17:24:12.706Z,1.65
2022-08-27T17:26:39.562Z,1.83
2022-08-27T17:29:06.016Z,1.70
2022-08-27T17:31:36.801Z,2.30
2022-08-27T17:34:04.662Z,1.42
2022-08-27T17:36:31.389Z,1.42
2022-08-27T17:38:59.992Z,2.00
2022-08-27T17:41:33.692Z,1.95
2022-08-27T17:44:05.688Z,2.10
2022-08-27T17:46:32.227Z,1.70
2022-08-27T17:48:59.602Z,1.50
2022-08-27T17:51:27.460Z,2.05
2022-08-27T17:54:00.585Z,1.77
2022-08-27T17:56:27.889Z,1.63
2022-08-27T17:58:54.812Z,1.40
2022-08-27T18:01:28.515Z,1.63
2022-08-27T18:03:55.912Z,2.22
2022-08-27T18:06:22.826Z,1.75
2022-08-27T18:08:49.353Z,1.50
2022-08-27T18:11:17.139Z,1.70
2022-08-27T18:13:44.029Z,1.95
2022-08-27T18:16:10.621Z,1.90
2022-08-27T18:18:38.151Z,1.50
2022-08-27T18:21:07.811Z,1.90
2022-08-27T18:23:36.598Z,1.90
2022-08-27T18:26:03.264Z,1.83
2022-08-27T18:28:31.069Z,1.58
2022-08-27T18:30:57.590Z,1.50
2022-08-27T18:33:24.135Z,1.80
2022-08-27T18:35:50.625Z,1.63
2022-08-27T18:38:18.491Z,1.45
2022-08-27T18:40:47.552Z,1.85
2022-08-27T18:43:14.834Z,1.88
2022-08-27T18:45:41.951Z,1.80
2022-08-27T18:48:21.517Z,2.08
2022-08-27T18:50:50.683Z,1.83
2022-08-27T18:53:19.734Z,1.30
2022-08-27T18:55:46.986Z,1.90
2022-08-27T18:58:13.682Z,1.70
2022-08-27T19:00:42.685Z,1.48
2022-08-27T19:03:10.105Z,1.50
2022-08-27T19:05:36.525Z,1.50
2022-08-27T19:08:03.404Z,1.48
2022-08-27T19:10:29.893Z,1.30
2022-08-27T19:12:56.303Z,1.75
2022-08-27T19:15:22.727Z,1.58
2022-08-27T19:17:54.013Z,1.45
2022-08-27T19:20:20.508Z,1.70
2022-08-27T19:22:47.651Z,2.15
2022-08-27T19:25:15.091Z,1.85
2022-08-27T19:27:41.831Z,2.20
2022-08-27T19:30:08.810Z,1.60
2022-08-27T19:32:35.329Z,3.22
2022-08-27T19:35:01.751Z,1.10
2022-08-27T19:37:29.628Z,2.08
2022-08-27T19:39:56.089Z,1.45
2022-08-27T19:42:22.765Z,2.08
2022-08-27T19:44:49.195Z,1.73
2022-08-27T19:47:21.339Z,2.20
2022-08-27T19:49:49.640Z,1.70
2022-08-27T19:52:16.105Z,1.45
2022-08-27T19:55:03.253Z,1.75
2022-08-27T19:57:28.929Z,1.67
2022-08-27T19:59:55.437Z,1.40
2022-08-27T20:02:21.880Z,1.55
2022-08-27T20:05:14.357Z,1.67
2022-08-27T20:07:35.158Z,1.40
2022-08-27T20:10:08.642Z,1.65
2022-08-27T20:12:36.070Z,1.52
2022-08-27T20:15:02.803Z,2.33
2022-08-27T20:17:29.484Z,1.55
2022-08-27T20:19:55.928Z,1.27
2022-08-27T20:22:22.366Z,1.70
2022-08-27T20:24:48.806Z,1.80
2022-08-27T20:27:15.345Z,1.65
2022-08-27T20:29:42.100Z,1.55
2022-08-27T20:32:08.567Z,3.35
2022-08-27T20:34:35.106Z,1.70
2022-08-27T20:37:02.804Z,2.40
2022-08-27T20:39:29.237Z,2.30
2022-08-27T20:41:55.679Z,2.15
2022-08-27T20:44:22.104Z,1.70
2022-08-27T20:46:52.140Z,2.65
2022-08-27T20:49:18.778Z,1.85
2022-08-27T20:51:51.258Z,2.08
2022-08-27T20:54:28.988Z,2.33
2022-08-27T20:56:55.408Z,1.90
2022-08-27T20:59:40.568Z,1.90
2022-08-27T21:02:09.565Z,1.63
2022-08-27T21:04:42.912Z,2.50
2022-08-27T21:07:09.536Z,1.15
2022-08-27T21:09:36.104Z,1.90
2022-08-27T21:12:22.817Z,1.40
2022-08-27T21:14:49.657Z,1.70
2022-08-27T21:17:21.539Z,1.48
2022-08-27T21:19:47.961Z,1.70
2022-08-27T21:22:14.386Z,2.30
2022-08-27T21:24:40.814Z,3.00
2022-08-27T21:27:07.235Z,2.28
2022-08-27T21:29:33.984Z,1.75
2022-08-27T21:32:00.406Z,1.67
2022-08-27T21:34:28.153Z,1.63
2022-08-27T21:36:54.689Z,1.45
2022-08-27T21:39:22.614Z,1.52
2022-08-27T21:41:49.115Z,1.20
2022-08-27T21:44:15.854Z,2.65
2022-08-27T21:46:42.338Z,1.67
2022-08-27T21:49:08.785Z,1.75
2022-08-27T21:51:35.293Z,1.42
2022-08-27T21:54:01.734Z,1.90
2022-08-27T21:56:28.401Z,1.50
2022-08-27T21:58:55.069Z,1.67
2022-08-27T22:01:21.621Z,1.52
2022-08-27T22:03:50.726Z,1.88
2022-08-27T22:06:17.998Z,1.95
2022-08-27T22:08:44.752Z,3.30
2022-08-27T22:11:11.764Z,3.03
2022-08-27T22:13:38.615Z,2.88
2022-08-27T22:16:05.309Z,2.58
2022-08-27T22:18:31.890Z,1.90
2022-08-27T22:20:58.786Z,2.95
2022-08-27T22:23:25.420Z,2.22
2022-08-27T22:25:51.844Z,2.47
2022-08-27T22:28:18.885Z,3.17
2022-08-27T22:30:45.394Z,3.67
2022-08-27T22:33:13.029Z,3.35
2022-08-27T22:35:39.779Z,2.60
2022-08-27T22:38:06.741Z,3.03
2022-08-27T22:40:34.084Z,2.75
2022-08-27T22:43:01.183Z,3.08
2022-08-27T22:45:28.505Z,4.57
2022-08-27T22:47:55.269Z,4.40
2022-08-27T22:50:22.679Z,2.95
2022-08-27T22:52:49.638Z,2.47
2022-08-27T22:55:20.629Z,1.95
2022-08-27T22:57:48.800Z,3.08
2022-08-27T23:00:18.924Z,3.20
2022-08-27T23:02:45.730Z,2.17
2022-08-27T23:05:13.379Z,1.90
2022-08-27T23:07:40.388Z,1.73
2022-08-27T23:10:09.414Z,2.58
2022-08-27T23:12:38.798Z,1.98
2022-08-27T23:15:08.299Z,1.88
2022-08-27T23:17:34.742Z,2.05
2022-08-27T23:20:01.202Z,2.00
2022-08-27T23:22:27.603Z,2.75
2022-08-27T23:25:12.581Z,2.47
2022-08-27T23:27:39.006Z,2.22
2022-08-27T23:30:07.874Z,3.03
2022-08-27T23:32:34.417Z,2.08
2022-08-27T23:35:01.016Z,3.30
2022-08-27T23:37:27.480Z,2.65
2022-08-27T23:39:54.246Z,3.15
2022-08-27T23:42:20.760Z,2.65
2022-08-27T23:44:48.771Z,3.20
2022-08-27T23:47:16.070Z,3.00
2022-08-27T23:49:43.313Z,3.03
2022-08-27T23:52:11.074Z,2.80
2022-08-27T23:54:37.881Z,3.17
2022-08-27T23:57:04.454Z,3.38
2022-08-27T23:59:30.999Z,3.10
